Time,TemperatureF,DewpointF,PressureIn,WindDirection,WindDirectionDegrees,WindSpeedMPH,WindSpeedGustMPH,Humidity,HourlyPrecipIn,Conditions,Clouds,dailyrainin,SolarRadiationWatts/m^2,SoftwareType,DateUTC
2013-05-07 00:03:00,60.0,57.0,-100.00,East,98,4.0,10.0,89,0.00,,,0.02,0.000000,,2013-05-07 04:03:00,
2013-05-07 00:12:00,60.0,57.0,-100.00,East,98,4.0,10.0,89,0.00,,,0.02,0.000000,,2013-05-07 04:12:00,
2013-05-07 00:42:00,60.0,57.0,-100.00,East,92,4.0,12.0,89,0.00,,,0.02,0.000000,,2013-05-07 04:42:00,
2013-05-07 00:53:00,60.0,57.0,-100.00,East,92,4.0,12.0,89,0.00,,,0.02,0.000000,,2013-05-07 04:53:00,
2013-05-07 01:02:00,60.0,57.0,-100.00,East,92,4.0,12.0,89,0.00,,,0.02,0.000000,,2013-05-07 05:02:00,
2013-05-07 01:12:00,60.0,57.0,-100.00,East,92,4.0,12.0,89,0.00,,,0.02,0.000000,,2013-05-07 05:12:00,
2013-05-07 01:32:00,60.0,56.0,-100.00,ESE,105,5.0,12.0,88,0.00,,,0.02,0.000000,,2013-05-07 05:32:00,
2013-05-07 01:42:00,60.0,56.0,-100.00,ESE,105,5.0,12.0,88,0.00,,,0.02,0.000000,,2013-05-07 05:42:00,
2013-05-07 01:52:00,60.0,56.0,-100.00,ESE,105,5.0,12.0,88,0.00,,,0.02,0.000000,,2013-05-07 05:52:00,
2013-05-07 02:02:00,60.0,56.0,-100.00,ESE,105,5.0,12.0,88,0.00,,,0.02,0.000000,,2013-05-07 06:02:00,
2013-05-07 02:12:00,60.0,56.0,-100.00,ESE,105,5.0,12.0,88,0.00,,,0.02,0.000000,,2013-05-07 06:12:00,
2013-05-07 02:32:00,59.0,55.0,-100.00,East,87,3.0,12.0,88,0.00,,,0.02,0.000000,,2013-05-07 06:32:00,
2013-05-07 02:42:00,59.0,55.0,-100.00,East,87,3.0,12.0,88,0.00,,,0.02,0.000000,,2013-05-07 06:42:00,
2013-05-07 02:52:00,59.0,55.0,-100.00,East,87,3.0,12.0,88,0.00,,,0.02,0.000000,,2013-05-07 06:52:00,
2013-05-07 03:02:00,59.0,55.0,-100.00,East,87,3.0,12.0,88,0.00,,,0.02,0.000000,,2013-05-07 07:02:00,
2013-05-07 03:11:00,59.0,55.0,-100.00,East,87,3.0,12.0,88,0.00,,,0.02,0.000000,,2013-05-07 07:11:00,
2013-05-07 03:42:00,60.0,56.0,-100.00,East,81,4.0,9.0,88,0.00,,,0.02,0.000000,,2013-05-07 07:42:00,
2013-05-07 03:53:00,60.0,56.0,-100.00,East,81,4.0,9.0,88,0.00,,,0.02,0.000000,,2013-05-07 07:53:00,
2013-05-07 04:02:00,60.0,56.0,-100.00,East,81,4.0,9.0,88,0.00,,,0.02,0.000000,,2013-05-07 08:02:00,
2013-05-07 04:11:00,60.0,56.0,-100.00,East,81,4.0,9.0,88,0.00,,,0.02,0.000000,,2013-05-07 08:11:00,
2013-05-07 04:32:00,59.0,55.0,-100.00,ENE,75,4.0,11.0,88,0.00,,,0.02,0.000000,,2013-05-07 08:32:00,
2013-05-07 04:42:00,59.0,55.0,-100.00,ENE,75,4.0,11.0,88,0.00,,,0.02,0.000000,,2013-05-07 08:42:00,
2013-05-07 04:52:00,59.0,55.0,-100.00,ENE,75,4.0,11.0,88,0.00,,,0.02,0.000000,,2013-05-07 08:52:00,
2013-05-07 05:01:00,59.0,55.0,-100.00,ENE,75,4.0,11.0,88,0.00,,,0.02,0.000000,,2013-05-07 09:01:00,
2013-05-07 05:11:00,59.0,55.0,-100.00,ENE,75,4.0,11.0,88,0.00,,,0.02,0.000000,,2013-05-07 09:11:00,
2013-05-07 05:33:00,59.0,56.0,-100.00,ENE,64,4.0,9.0,89,0.00,,,0.02,0.000000,,2013-05-07 09:33:00,
2013-05-07 05:43:00,59.0,56.0,-100.00,ENE,64,4.0,9.0,89,0.00,,,0.02,0.000000,,2013-05-07 09:43:00,
2013-05-07 05:52:00,59.0,56.0,-100.00,ENE,64,4.0,9.0,89,0.00,,,0.02,0.000000,,2013-05-07 09:52:00,
2013-05-07 06:03:00,59.0,56.0,-100.00,ENE,64,4.0,9.0,89,0.00,,,0.02,0.000000,,2013-05-07 10:03:00,
2013-05-07 06:12:00,59.0,56.0,-100.00,ENE,64,4.0,9.0,89,0.00,,,0.02,0.000000,,2013-05-07 10:12:00,
2013-05-07 06:33:00,59.0,56.0,-100.00,ENE,68,3.0,9.0,89,0.00,,,0.02,0.000000,,2013-05-07 10:33:00,
2013-05-07 06:42:00,59.0,56.0,-100.00,ENE,68,3.0,9.0,89,0.00,,,0.02,0.000000,,2013-05-07 10:42:00,
2013-05-07 06:52:00,59.0,56.0,-100.00,ENE,68,3.0,9.0,89,0.00,,,0.02,0.000000,,2013-05-07 10:52:00,
2013-05-07 07:02:00,59.0,56.0,-100.00,ENE,68,3.0,9.0,89,0.00,,,0.02,0.000000,,2013-05-07 11:02:00,
2013-05-07 07:12:00,59.0,56.0,-100.00,ENE,68,3.0,9.0,89,0.00,,,0.02,0.000000,,2013-05-07 11:12:00,
2013-05-07 07:32:00,60.0,56.0,-100.00,ENE,70,4.0,12.0,88,0.00,,,0.02,18.000000,,2013-05-07 11:32:00,
2013-05-07 07:42:00,60.0,56.0,-100.00,ENE,70,4.0,12.0,88,0.00,,,0.02,18.000000,,2013-05-07 11:42:00,
2013-05-07 07:52:00,60.0,56.0,-100.00,ENE,70,4.0,12.0,88,0.00,,,0.02,18.000000,,2013-05-07 11:52:00,
2013-05-07 08:02:00,60.0,56.0,-100.00,ENE,70,4.0,12.0,88,0.00,,,0.02,18.000000,,2013-05-07 12:02:00,
2013-05-07 08:12:00,60.0,56.0,-100.00,ENE,70,4.0,12.0,88,0.00,,,0.02,18.000000,,2013-05-07 12:12:00,
2013-05-07 08:32:00,60.0,56.0,-100.00,ENE,62,5.0,11.0,86,0.00,,,-99.99,72.000000,,2013-05-07 12:32:00,
2013-05-07 08:42:00,60.0,56.0,-100.00,ENE,62,5.0,11.0,86,0.00,,,-99.99,72.000000,,2013-05-07 12:42:00,
2013-05-07 08:52:00,60.0,56.0,-100.00,ENE,62,5.0,11.0,86,0.00,,,-99.99,72.000000,,2013-05-07 12:52:00,
2013-05-07 09:02:00,60.0,56.0,-100.00,ENE,62,5.0,11.0,86,0.00,,,-99.99,72.000000,,2013-05-07 13:02:00,
2013-05-07 09:11:00,60.0,56.0,-100.00,ENE,62,5.0,11.0,86,0.00,,,-99.99,72.000000,,2013-05-07 13:11:00,
2013-05-07 09:42:00,60.0,55.0,-100.00,ENE,75,6.0,12.0,85,0.00,,,-99.99,81.000000,,2013-05-07 13:42:00,
2013-05-07 09:52:00,60.0,55.0,-100.00,ENE,75,6.0,12.0,85,0.00,,,-99.99,81.000000,,2013-05-07 13:52:00,
2013-05-07 10:02:00,60.0,55.0,-100.00,ENE,75,6.0,12.0,85,0.00,,,-99.99,81.000000,,2013-05-07 14:02:00,
2013-05-07 10:11:00,60.0,55.0,-100.00,ENE,75,6.0,12.0,85,0.00,,,-99.99,81.000000,,2013-05-07 14:11:00,
2013-05-07 10:42:00,60.0,55.0,-100.00,ENE,71,6.0,14.0,85,0.00,,,0.02,178.000000,,2013-05-07 14:42:00,
2013-05-07 10:52:00,60.0,55.0,-100.00,ENE,71,6.0,14.0,85,0.00,,,0.02,178.000000,,2013-05-07 14:52:00,
2013-05-07 11:01:00,60.0,55.0,-100.00,ENE,71,6.0,14.0,85,0.00,,,0.02,178.000000,,2013-05-07 15:01:00,
2013-05-07 11:12:00,60.0,55.0,-100.00,ENE,71,6.0,14.0,85,0.00,,,0.02,178.000000,,2013-05-07 15:12:00,
2013-05-07 11:33:00,58.0,55.0,-100.00,ENE,59,4.0,9.0,90,0.00,,,0.02,75.000000,,2013-05-07 15:33:00,
2013-05-07 11:43:00,58.0,55.0,-100.00,ENE,59,4.0,9.0,90,0.00,,,0.02,75.000000,,2013-05-07 15:43:00,
2013-05-07 11:53:00,58.0,55.0,-100.00,ENE,59,4.0,9.0,90,0.00,,,0.02,75.000000,,2013-05-07 15:53:00,
2013-05-07 12:03:00,58.0,55.0,-100.00,ENE,59,4.0,9.0,90,0.00,,,0.02,75.000000,,2013-05-07 16:03:00,
2013-05-07 12:12:00,58.0,55.0,-100.00,ENE,59,4.0,9.0,90,0.00,,,0.02,75.000000,,2013-05-07 16:12:00,
2013-05-07 14:42:00,61.0,60.0,-100.00,NE,35,4.0,9.0,96,-99.99,,,0.27,156.000000,,2013-05-07 18:42:00,
2013-05-07 14:52:00,61.0,60.0,-100.00,NE,35,4.0,9.0,96,-99.99,,,0.27,156.000000,,2013-05-07 18:52:00,
2013-05-07 15:02:00,61.0,60.0,-100.00,NE,35,4.0,9.0,96,-99.99,,,0.27,156.000000,,2013-05-07 19:02:00,
2013-05-07 15:11:00,61.0,60.0,-100.00,NE,35,4.0,9.0,96,-99.99,,,0.27,156.000000,,2013-05-07 19:11:00,
2013-05-07 16:42:00,62.0,59.0,-100.00,East,88,5.0,12.0,90,-99.99,,,0.47,153.000000,,2013-05-07 20:42:00,
2013-05-07 16:52:00,62.0,59.0,-100.00,East,88,5.0,12.0,90,-99.99,,,0.47,153.000000,,2013-05-07 20:52:00,
2013-05-07 17:02:00,62.0,59.0,-100.00,East,88,5.0,12.0,90,-99.99,,,0.47,153.000000,,2013-05-07 21:02:00,
2013-05-07 17:11:00,62.0,59.0,-100.00,East,88,5.0,12.0,90,-99.99,,,0.47,153.000000,,2013-05-07 21:11:00,
2013-05-07 17:13:00,62.0,59.0,-100.00,East,86,4.0,12.0,91,0.07,,,0.54,97.000000,,2013-05-07 21:13:00,
2013-05-07 17:33:00,62.0,59.0,-100.00,East,86,4.0,12.0,91,0.07,,,0.54,97.000000,,2013-05-07 21:33:00,
2013-05-07 17:43:00,62.0,59.0,-100.00,East,86,4.0,12.0,91,0.07,,,0.54,97.000000,,2013-05-07 21:43:00,
2013-05-07 17:53:00,62.0,59.0,-100.00,East,86,4.0,12.0,91,0.07,,,0.54,97.000000,,2013-05-07 21:53:00,
2013-05-07 18:02:00,62.0,59.0,-100.00,East,86,4.0,12.0,91,0.07,,,0.54,97.000000,,2013-05-07 22:02:00,
2013-05-07 18:33:00,63.0,61.0,-100.00,ENE,75,5.0,11.0,94,0.03,,,0.57,105.000000,,2013-05-07 22:33:00,
2013-05-07 18:42:00,63.0,61.0,-100.00,ENE,75,5.0,11.0,94,0.03,,,0.57,105.000000,,2013-05-07 22:42:00,
2013-05-07 18:52:00,63.0,61.0,-100.00,ENE,75,5.0,11.0,94,0.03,,,0.57,105.000000,,2013-05-07 22:52:00,
2013-05-07 19:02:00,63.0,61.0,-100.00,ENE,75,5.0,11.0,94,0.03,,,0.57,105.000000,,2013-05-07 23:02:00,
2013-05-07 19:12:00,63.0,61.0,-100.00,ENE,75,5.0,11.0,94,0.03,,,0.57,105.000000,,2013-05-07 23:12:00,
2013-05-07 19:32:00,63.0,60.0,-100.00,ESE,102,6.0,11.0,89,0.00,,,0.57,87.000000,,2013-05-07 23:32:00,
2013-05-07 19:42:00,63.0,60.0,-100.00,ESE,102,6.0,11.0,89,0.00,,,0.57,87.000000,,2013-05-07 23:42:00,
2013-05-07 19:52:00,63.0,60.0,-100.00,ESE,102,6.0,11.0,89,0.00,,,0.57,87.000000,,2013-05-07 23:52:00,
2013-05-07 20:02:00,63.0,60.0,-100.00,ESE,102,6.0,11.0,89,0.00,,,0.57,87.000000,,2013-05-08 00:02:00,
2013-05-07 20:12:00,63.0,60.0,-100.00,ESE,102,6.0,11.0,89,0.00,,,0.57,87.000000,,2013-05-08 00:12:00,
2013-05-07 20:42:00,63.0,59.0,-100.00,East,92,6.0,14.0,87,0.00,,,-99.99,23.000000,,2013-05-08 00:42:00,
2013-05-07 20:52:00,63.0,59.0,-100.00,East,92,6.0,14.0,87,0.00,,,-99.99,23.000000,,2013-05-08 00:52:00,
2013-05-07 21:02:00,63.0,59.0,-100.00,East,92,6.0,14.0,87,0.00,,,-99.99,23.000000,,2013-05-08 01:02:00,
2013-05-07 21:11:00,63.0,59.0,-100.00,East,92,6.0,14.0,87,0.00,,,-99.99,23.000000,,2013-05-08 01:11:00,
2013-05-07 21:32:00,62.0,58.0,-100.00,SE,126,3.0,12.0,87,0.09,,,0.65,0.000000,,2013-05-08 01:32:00,
2013-05-07 21:42:00,62.0,58.0,-100.00,SE,126,3.0,12.0,87,0.09,,,0.65,0.000000,,2013-05-08 01:42:00,
2013-05-07 21:52:00,62.0,58.0,-100.00,SE,126,3.0,12.0,87,0.09,,,0.65,0.000000,,2013-05-08 01:52:00,
2013-05-07 22:02:00,62.0,58.0,-100.00,SE,126,3.0,12.0,87,0.09,,,0.65,0.000000,,2013-05-08 02:02:00,
2013-05-07 22:12:00,62.0,58.0,-100.00,SE,126,3.0,12.0,87,0.09,,,0.65,0.000000,,2013-05-08 02:12:00,
2013-05-07 22:32:00,61.0,61.0,-100.00,East,80,3.0,9.0,99,0.18,,,0.82,0.000000,,2013-05-08 02:32:00,
2013-05-07 22:42:00,61.0,61.0,-100.00,East,80,3.0,9.0,99,0.18,,,0.82,0.000000,,2013-05-08 02:42:00,
2013-05-07 22:52:00,61.0,61.0,-100.00,East,80,3.0,9.0,99,0.18,,,0.82,0.000000,,2013-05-08 02:52:00,
2013-05-07 23:02:00,61.0,61.0,-100.00,East,80,3.0,9.0,99,0.18,,,0.82,0.000000,,2013-05-08 03:02:00,
2013-05-07 23:11:00,61.0,61.0,-100.00,East,80,3.0,9.0,99,0.18,,,0.82,0.000000,,2013-05-08 03:11:00,
2013-05-07 23:13:00,61.0,60.0,-100.00,ESE,112,6.0,11.0,98,0.19,,,1.01,0.000000,,2013-05-08 03:13:00,
2013-05-07 23:33:00,61.0,60.0,-100.00,ESE,112,6.0,11.0,98,0.19,,,1.01,0.000000,,2013-05-08 03:33:00,
2013-05-07 23:43:00,61.0,60.0,-100.00,ESE,112,6.0,11.0,98,0.19,,,1.01,0.000000,,2013-05-08 03:43:00,
2013-05-07 23:52:00,61.0,60.0,-100.00,ESE,112,6.0,11.0,98,0.19,,,1.01,0.000000,,2013-05-08 03:52:00,